createdAt,value
2023-03-27T00:02:44.835Z,1375.00
2023-03-27T00:06:44.867Z,1345.00
2023-03-27T00:10:44.986Z,1380.00
2023-03-27T00:14:45.097Z,1377.00
2023-03-27T00:18:45.257Z,1381.00
2023-03-27T00:22:45.334Z,1397.00
2023-03-27T00:26:45.455Z,1340.00
2023-03-27T00:30:45.608Z,1309.00
2023-03-27T00:34:45.638Z,1271.00
2023-03-27T00:38:45.872Z,1197.00
2023-03-27T00:42:45.859Z,1186.00
2023-03-27T00:46:46.019Z,1181.00
2023-03-27T00:50:46.123Z,1224.00
2023-03-27T00:54:46.236Z,1327.00
2023-03-27T00:58:46.309Z,1439.00
2023-03-27T01:02:46.543Z,1386.00
2023-03-27T01:06:46.536Z,1403.00
2023-03-27T01:10:46.658Z,1418.00
2023-03-27T01:14:46.882Z,1363.00
2023-03-27T01:18:46.928Z,1386.00
2023-03-27T01:22:47.039Z,1345.00
2023-03-27T01:26:47.140Z,1296.00
2023-03-27T01:30:47.304Z,1244.00
2023-03-27T01:34:47.441Z,1242.00
2023-03-27T01:38:48.413Z,1239.00
2023-03-27T01:42:47.342Z,1234.00
2023-03-27T01:46:47.360Z,1238.00
2023-03-27T01:50:47.451Z,1271.00
2023-03-27T01:54:47.561Z,1307.00
2023-03-27T01:58:47.711Z,1240.00
2023-03-27T02:02:47.907Z,1266.00
2023-03-27T02:06:48.030Z,1278.00
2023-03-27T02:10:48.134Z,1339.00
2023-03-27T02:14:48.264Z,1301.00
2023-03-27T02:18:48.430Z,1298.00
2023-03-27T02:22:48.577Z,1363.00
2023-03-27T02:26:48.772Z,1384.00
2023-03-27T02:31:06.779Z,1330.00
2023-03-27T02:34:49.845Z,1304.00
2023-03-27T02:38:48.897Z,1296.00
2023-03-27T02:42:48.820Z,1297.00
2023-03-27T02:46:49.000Z,1256.00
2023-03-27T02:50:49.155Z,1238.00
2023-03-27T02:54:49.336Z,1219.00
2023-03-27T02:58:49.468Z,1176.00
2023-03-27T03:02:49.714Z,1161.00
2023-03-27T03:06:49.854Z,1135.00
2023-03-27T03:10:49.993Z,1075.00
2023-03-27T03:14:50.131Z,1079.00
2023-03-27T03:18:50.408Z,1025.00
2023-03-27T03:22:50.498Z,1094.00
2023-03-27T03:26:50.645Z,1056.00
2023-03-27T03:30:50.843Z,1079.00
2023-03-27T03:34:51.012Z,994.00
2023-03-27T03:38:51.139Z,971.00
2023-03-27T03:42:51.326Z,932.00
2023-03-27T03:46:51.502Z,883.00
2023-03-27T03:50:51.647Z,840.00
2023-03-27T03:54:51.836Z,781.00
2023-03-27T03:58:52.023Z,636.00
2023-03-27T04:02:52.315Z,575.00
2023-03-27T04:06:52.385Z,551.00
2023-03-27T04:10:52.563Z,512.00
2023-03-27T04:14:52.734Z,509.00
2023-03-27T04:18:53.025Z,520.00
2023-03-27T04:22:54.286Z,516.00
2023-03-27T04:26:53.092Z,486.00
2023-03-27T04:30:53.055Z,499.00
2023-03-27T04:34:53.146Z,500.00
2023-03-27T04:38:53.343Z,509.00
2023-03-27T04:42:53.515Z,521.00
2023-03-27T04:46:53.806Z,508.00
2023-03-27T04:50:54.048Z,542.00
2023-03-27T04:54:54.106Z,615.00
2023-03-27T04:58:54.295Z,844.00
2023-03-27T05:02:54.498Z,1177.00
2023-03-27T05:06:54.535Z,1392.00
2023-03-27T05:10:54.727Z,1636.00
2023-03-27T05:14:54.709Z,1744.00
2023-03-27T05:18:54.783Z,1898.00
2023-03-27T05:22:54.845Z,2084.00
2023-03-27T05:26:54.947Z,2136.00
2023-03-27T05:30:55.300Z,2230.00
2023-03-27T05:34:55.049Z,2410.00
2023-03-27T05:38:55.068Z,2441.00
2023-03-27T05:42:55.431Z,2584.00
2023-03-27T05:46:55.453Z,3061.00
2023-03-27T05:50:55.335Z,3160.00
2023-03-27T05:54:55.439Z,3409.00
2023-03-27T05:58:55.430Z,3576.00
2023-03-27T06:02:55.504Z,3927.00
2023-03-27T06:06:55.305Z,4183.00
2023-03-27T06:10:55.573Z,4274.00
2023-03-27T06:14:55.239Z,4473.00
2023-03-27T06:18:55.184Z,4630.00
2023-03-27T06:22:55.114Z,4696.00
2023-03-27T06:26:55.095Z,4771.00
2023-03-27T06:30:55.081Z,4871.00
2023-03-27T06:34:55.047Z,4950.00
2023-03-27T06:38:54.970Z,4990.00
2023-03-27T06:42:54.947Z,5010.00
2023-03-27T06:46:54.968Z,4979.00
2023-03-27T06:50:55.136Z,5337.00
2023-03-27T06:54:54.827Z,5354.00
2023-03-27T06:58:54.821Z,5242.00
2023-03-27T07:02:55.044Z,5225.00
2023-03-27T07:06:54.709Z,5084.00
2023-03-27T07:14:54.650Z,5020.00
2023-03-27T07:18:54.950Z,4952.00
2023-03-27T07:22:56.451Z,4957.00
2023-03-27T07:26:54.538Z,4962.00
2023-03-27T07:30:55.355Z,4883.00
2023-03-27T07:34:54.728Z,4863.00
2023-03-27T07:38:55.031Z,4829.00
2023-03-27T07:42:55.089Z,4751.00
2023-03-27T07:46:55.483Z,4745.00
2023-03-27T07:50:58.199Z,4758.00
2023-03-27T07:54:56.469Z,4764.00
2023-03-27T07:58:55.403Z,4707.00
2023-03-27T08:02:55.451Z,4727.00
2023-03-27T08:06:55.384Z,4671.00
2023-03-27T08:10:55.276Z,4631.00
2023-03-27T08:14:55.489Z,4586.00
2023-03-27T08:18:55.217Z,4535.00
2023-03-27T08:22:55.480Z,4492.00
2023-03-27T08:26:55.984Z,4459.00
2023-03-27T08:30:55.465Z,4394.00
2023-03-27T08:34:56.181Z,4373.00
2023-03-27T08:38:55.410Z,4245.00
2023-03-27T08:42:55.502Z,4321.00
2023-03-27T08:46:55.528Z,4359.00
2023-03-27T08:50:55.528Z,4428.00
2023-03-27T08:54:55.343Z,4421.00
2023-03-27T08:58:55.512Z,4418.00
2023-03-27T09:02:55.362Z,4389.00
2023-03-27T09:06:55.213Z,4347.00
2023-03-27T09:10:55.505Z,4312.00
2023-03-27T09:14:55.181Z,4290.00
2023-03-27T09:18:55.122Z,4311.00
2023-03-27T09:22:55.516Z,4314.00
2023-03-27T09:27:06.370Z,4305.00
2023-03-27T09:30:56.042Z,4316.00
2023-03-27T09:34:55.010Z,4320.00
2023-03-27T09:38:54.994Z,4272.00
2023-03-27T09:42:55.511Z,4244.00
2023-03-27T09:46:54.846Z,4225.00
2023-03-27T09:50:55.204Z,4271.00
2023-03-27T09:54:55.021Z,4238.00
2023-03-27T09:58:55.025Z,4200.00
2023-03-27T10:02:55.042Z,4223.00
2023-03-27T10:06:55.544Z,4201.00
2023-03-27T10:10:55.255Z,4218.00
2023-03-27T10:14:55.555Z,4296.00
2023-03-27T10:18:55.118Z,4381.00
2023-03-27T10:22:55.068Z,4400.00
2023-03-27T10:26:55.097Z,4382.00
2023-03-27T10:30:55.729Z,4357.00
2023-03-27T10:34:55.065Z,4324.00
2023-03-27T10:38:55.555Z,4334.00
2023-03-27T10:42:55.538Z,4428.00
2023-03-27T10:46:55.102Z,4500.00
2023-03-27T10:50:55.167Z,4456.00
2023-03-27T10:54:55.079Z,4381.00
2023-03-27T10:58:55.557Z,4397.00
2023-03-27T11:02:55.103Z,4388.00
2023-03-27T11:06:55.040Z,4361.00
2023-03-27T11:10:55.120Z,4328.00
2023-03-27T11:14:55.044Z,4344.00
2023-03-27T11:18:55.042Z,4287.00
2023-03-27T11:22:55.045Z,4216.00
2023-03-27T11:26:55.004Z,4146.00
2023-03-27T11:30:55.675Z,4114.00
2023-03-27T11:34:55.564Z,4103.00
2023-03-27T11:38:55.547Z,4098.00
2023-03-27T11:42:55.246Z,4062.00
2023-03-27T11:46:55.569Z,3970.00
2023-03-27T11:50:55.517Z,3943.00
2023-03-27T11:54:55.297Z,3939.00
2023-03-27T11:58:55.285Z,3818.00
2023-03-27T12:02:55.365Z,3842.00
2023-03-27T12:06:55.648Z,3774.00
2023-03-27T12:10:55.474Z,3695.00
2023-03-27T12:14:55.423Z,3680.00
2023-03-27T12:19:03.945Z,3677.00
2023-03-27T12:22:56.563Z,3691.00
2023-03-27T12:26:55.397Z,3695.00
2023-03-27T12:30:57.304Z,3689.00
2023-03-27T12:34:55.313Z,3698.00
2023-03-27T12:38:55.270Z,3646.00
2023-03-27T12:42:55.200Z,3635.00
2023-03-27T12:46:55.253Z,3582.00
2023-03-27T12:50:55.563Z,3547.00
2023-03-27T12:54:55.384Z,3514.00
2023-03-27T12:58:55.508Z,3452.00
2023-03-27T13:02:55.637Z,3414.00
2023-03-27T13:06:55.688Z,3376.00
2023-03-27T13:10:55.982Z,3334.00
2023-03-27T13:14:55.918Z,3308.00
2023-03-27T13:18:56.051Z,3288.00
2023-03-27T13:22:56.205Z,3264.00
2023-03-27T13:26:56.310Z,3247.00
2023-03-27T13:30:56.498Z,3195.00
2023-03-27T13:34:56.567Z,3195.00
2023-03-27T13:38:56.724Z,3136.00
2023-03-27T13:42:56.812Z,3098.00
2023-03-27T13:46:57.004Z,3065.00
2023-03-27T13:50:57.104Z,3072.00
2023-03-27T13:54:57.296Z,3046.00
2023-03-27T13:58:57.389Z,3008.00
2023-03-27T14:02:57.656Z,2972.00
2023-03-27T14:06:57.652Z,2978.00
2023-03-27T14:10:57.771Z,2944.00
2023-03-27T14:14:58.126Z,2866.00
2023-03-27T14:18:58.101Z,2861.00
2023-03-27T14:22:58.208Z,2878.00
2023-03-27T14:26:58.366Z,2880.00
2023-03-27T14:30:58.548Z,2766.00
2023-03-27T14:34:58.647Z,2809.00
2023-03-27T14:38:58.850Z,2820.00
2023-03-27T14:42:59.019Z,2827.00
2023-03-27T14:46:59.171Z,2815.00
2023-03-27T14:50:59.632Z,2774.00
2023-03-27T14:54:59.510Z,2728.00
2023-03-27T14:58:59.746Z,2704.00
2023-03-27T15:03:00.123Z,2684.00
2023-03-27T15:07:00.108Z,2679.00
2023-03-27T15:11:00.344Z,2627.00
2023-03-27T15:15:00.475Z,2607.00
2023-03-27T15:19:00.694Z,2606.00
2023-03-27T15:23:00.902Z,2625.00
2023-03-27T15:27:01.097Z,2631.00
2023-03-27T15:31:01.390Z,2621.00
2023-03-27T15:35:01.504Z,2552.00
2023-03-27T15:39:01.757Z,2542.00
2023-03-27T15:43:01.942Z,2519.00
2023-03-27T15:47:02.005Z,2498.00
2023-03-27T15:51:01.905Z,2493.00
2023-03-27T15:55:01.859Z,2447.00
2023-03-27T15:59:01.811Z,2466.00
2023-03-27T16:03:02.322Z,2453.00
2023-03-27T16:07:01.729Z,2452.00
2023-03-27T16:11:01.653Z,2431.00
2023-03-27T16:15:01.671Z,2468.00
2023-03-27T16:19:01.581Z,2430.00
2023-03-27T16:23:01.683Z,2443.00
2023-03-27T16:27:01.607Z,2402.00
2023-03-27T16:31:01.542Z,2402.00
2023-03-27T16:35:01.505Z,2443.00
2023-03-27T16:39:01.491Z,2415.00
2023-03-27T16:43:01.473Z,2418.00
2023-03-27T16:47:01.438Z,2398.00
2023-03-27T16:51:01.373Z,2392.00
2023-03-27T16:55:01.355Z,2351.00
2023-03-27T16:59:01.310Z,2379.00
2023-03-27T17:03:01.446Z,2399.00
2023-03-27T17:07:01.328Z,2397.00
2023-03-27T17:11:01.316Z,2414.00
2023-03-27T17:15:01.251Z,2400.00
2023-03-27T17:19:01.239Z,2390.00
2023-03-27T17:23:01.173Z,2386.00
2023-03-27T17:27:01.164Z,2365.00
2023-03-27T17:31:04.701Z,2371.00
2023-03-27T17:35:01.074Z,2366.00
2023-03-27T17:39:01.026Z,2359.00
2023-03-27T17:43:01.011Z,2305.00
2023-03-27T17:47:01.074Z,2295.00
2023-03-27T17:51:08.738Z,2295.00
2023-03-27T17:55:01.864Z,2295.00
2023-03-27T17:59:00.844Z,2274.00
2023-03-27T18:03:00.847Z,2253.00
2023-03-27T18:07:00.788Z,2225.00
2023-03-27T18:11:00.800Z,2218.00
2023-03-27T18:15:00.776Z,2201.00
2023-03-27T18:19:00.784Z,2188.00
2023-03-27T18:23:00.770Z,2169.00
2023-03-27T18:27:00.723Z,2159.00
2023-03-27T18:31:00.735Z,2142.00
2023-03-27T18:35:00.782Z,2129.00
2023-03-27T18:39:00.797Z,2099.00
2023-03-27T18:43:00.883Z,2073.00
2023-03-27T18:47:00.786Z,2051.00
2023-03-27T18:51:00.795Z,2048.00
2023-03-27T18:55:00.764Z,2007.00
2023-03-27T18:59:00.762Z,1994.00
2023-03-27T19:03:00.763Z,1978.00
2023-03-27T19:07:00.762Z,1956.00
2023-03-27T19:11:00.976Z,1951.00
2023-03-27T19:15:09.740Z,1929.00
2023-03-27T19:19:01.672Z,1925.00
2023-03-27T19:23:00.666Z,1902.00
2023-03-27T19:27:00.598Z,1883.00
2023-03-27T19:31:00.651Z,1875.00
2023-03-27T19:35:00.505Z,1869.00
2023-03-27T19:39:00.452Z,1851.00
2023-03-27T19:43:00.402Z,1837.00
2023-03-27T19:47:00.424Z,1816.00
2023-03-27T19:51:00.365Z,1797.00
2023-03-27T19:55:00.366Z,1791.00
2023-03-27T19:59:00.325Z,1776.00
2023-03-27T20:03:00.404Z,1763.00
2023-03-27T20:07:00.329Z,1728.00
2023-03-27T20:11:00.733Z,1722.00
2023-03-27T20:15:11.104Z,1716.00
2023-03-27T20:19:01.346Z,1710.00
2023-03-27T20:23:00.294Z,1678.00
2023-03-27T20:27:00.213Z,1673.00
2023-03-27T20:31:00.262Z,1660.00
2023-03-27T20:35:03.351Z,1657.00
2023-03-27T20:39:01.119Z,1654.00
2023-03-27T20:43:00.065Z,1624.00
2023-03-27T20:47:00.214Z,1617.00
2023-03-27T20:51:00.034Z,1593.00
2023-03-27T20:54:59.973Z,1595.00
2023-03-27T20:58:59.987Z,1570.00
2023-03-27T21:03:00.132Z,1569.00
2023-03-27T21:06:59.995Z,1567.00
2023-03-27T21:11:00.037Z,1543.00
2023-03-27T21:15:00.115Z,1540.00
2023-03-27T21:19:00.163Z,1522.00
2023-03-27T21:23:00.179Z,1499.00
2023-03-27T21:27:00.282Z,1482.00
2023-03-27T21:31:00.324Z,1478.00
2023-03-27T21:35:00.370Z,1473.00
2023-03-27T21:39:00.381Z,1461.00
2023-03-27T21:43:00.482Z,1451.00
2023-03-27T21:47:00.562Z,1449.00
2023-03-27T21:51:00.572Z,1432.00
2023-03-27T21:55:03.377Z,1416.00
2023-03-27T21:59:00.615Z,1405.00
2023-03-27T22:03:00.828Z,1394.00
2023-03-27T22:07:00.506Z,1384.00
2023-03-27T22:11:00.509Z,1370.00
2023-03-27T22:15:00.480Z,1369.00
2023-03-27T22:19:00.423Z,1348.00
2023-03-27T22:23:00.386Z,1341.00
2023-03-27T22:27:00.330Z,1315.00
2023-03-27T22:31:00.315Z,1325.00
2023-03-27T22:35:00.250Z,1312.00
2023-03-27T22:39:00.234Z,1304.00
2023-03-27T22:43:00.221Z,1304.00
2023-03-27T22:47:00.334Z,1288.00
2023-03-27T22:51:00.103Z,1281.00
2023-03-27T22:55:00.099Z,1264.00
2023-03-27T22:59:00.019Z,1263.00
2023-03-27T23:03:00.045Z,1251.00
2023-03-27T23:06:59.961Z,1235.00
2023-03-27T23:10:59.906Z,1241.00
2023-03-27T23:14:59.974Z,1215.00
2023-03-27T23:19:00.049Z,1214.00
2023-03-27T23:23:00.125Z,1209.00
2023-03-27T23:27:00.215Z,1186.00
2023-03-27T23:31:00.306Z,1177.00
2023-03-27T23:35:00.451Z,1173.00
2023-03-27T23:39:00.541Z,1172.00
2023-03-27T23:43:00.703Z,1171.00
2023-03-27T23:47:00.797Z,1155.00
2023-03-27T23:51:01.036Z,1141.00
2023-03-27T23:55:01.101Z,1131.00
2023-03-27T23:59:01.216Z,1129.00
